Time;durP1;ratioP1;P1;durP2;ratioP2;P2;SDS_P1;SDS_P2;PMS_P1;PMS_P2;Temp;Humidity;BMP_temperature;BMP_pressure;BME280_temperature;BME280_humidity;BME280_pressure;Samples;Min_cycle;Max_cycle;Signal;HPM_P1;HPM_P2
2022/10/02 00:00:41;;;;;;;1.05;0.60;;;;;;;;;;5046072;28;20407;-72
2022/10/02 00:03:40;;;;;;;0.93;0.50;;;;;;;;;;5045821;28;20053;-72
2022/10/02 00:06:17;;;;;;;2.65;0.60;;;;;;;;;;5048729;28;20064;-72
2022/10/02 00:08:53;;;;;;;1.13;0.50;;;;;;;;;;5049865;28;20423;-71
2022/10/02 00:11:33;;;;;;;1.95;0.60;;;;;;;;;;5049752;28;20041;-72
2022/10/02 00:14:09;;;;;;;0.75;0.60;;;;;;;;;;5049567;28;20388;-72
2022/10/02 00:16:46;;;;;;;2.00;0.55;;;;;;;;;;5049972;28;20377;-72
2022/10/02 00:19:18;;;;;;;2.30;0.50;;;;;;;;;;5050370;28;20048;-73
2022/10/02 00:22:19;;;;;;;0.43;0.43;;;;;;;;;;5050003;28;20049;-72
2022/10/02 00:24:52;;;;;;;1.08;0.40;;;;;;;;;;5046890;28;20049;-72
2022/10/02 00:27:52;;;;;;;1.08;0.60;;;;;;;;;;5048760;28;20116;-72
2022/10/02 00:30:23;;;;;;;1.65;0.68;;;;;;;;;;5048571;28;20049;-72
2022/10/02 00:33:20;;;;;;;;;;;;;;;;;;5049414;28;20147;-73
2022/10/02 00:36:10;;;;;;;7.10;2.13;;;;;;;;;;5046933;28;20319;-72
2022/10/02 00:38:54;;;;;;;9.10;1.63;;;;;;;;;;5047843;28;20049;-72
2022/10/02 00:41:39;;;;;;;2.63;1.73;;;;;;;;;;5049236;28;20041;-73
2022/10/02 00:44:33;;;;;;;3.90;1.58;;;;;;;;;;5046309;28;20061;-72
2022/10/02 00:47:06;;;;;;;;;;;;;;;;;;5049204;28;20059;-71
2022/10/02 00:50:00;;;;;;;1.63;1.17;;;;;;;;;;5048562;28;20414;-72
2022/10/02 00:52:36;;;;;;;4.70;1.27;;;;;;;;;;5049319;28;20067;-73
2022/10/02 00:55:14;;;;;;;1.58;1.13;;;;;;;;;;5049053;28;20052;-71
2022/10/02 00:58:15;;;;;;;1.58;1.02;;;;;;;;;;5047772;28;20045;-72
2022/10/02 01:00:49;;;;;;;;;;;;;;;;;;5047667;28;20041;-71
2022/10/02 01:03:43;;;;;;;2.38;0.77;;;;;;;;;;5045292;28;19920;-72
2022/10/02 01:06:13;;;;;;;2.25;0.90;;;;;;;;;;5047518;28;20049;-73
2022/10/02 01:08:43;;;;;;;1.10;0.80;;;;;;;;;;5047237;28;20059;-72
2022/10/02 01:11:12;;;;;;;1.60;1.00;;;;;;;;;;5046446;28;20053;-77
2022/10/02 01:13:41;;;;;;;;;;;;;;;;;;5049510;28;20052;-72
2022/10/02 01:16:13;;;;;;;1.38;0.70;;;;;;;;;;5047365;28;19929;-72
2022/10/02 01:18:47;;;;;;;1.00;0.57;;;;;;;;;;5046329;28;20053;-73
2022/10/02 01:21:41;;;;;;;3.03;0.55;;;;;;;;;;5048482;28;20132;-72
2022/10/02 01:24:39;;;;;;;3.63;0.68;;;;;;;;;;5047016;28;20059;-71
2022/10/02 01:27:09;;;;;;;4.82;0.60;;;;;;;;;;5049070;28;20515;-71
2022/10/02 01:29:38;;;;;;;;;;;;;;;;;;5048035;28;20044;-72
2022/10/02 01:32:09;;;;;;;1.25;0.50;;;;;;;;;;5045618;28;19928;-72
2022/10/02 01:34:40;;;;;;;0.98;0.50;;;;;;;;;;5048463;28;20052;-72
2022/10/02 01:37:11;;;;;;;2.85;0.50;;;;;;;;;;5046294;28;20622;-80
2022/10/02 01:39:42;;;;;;;1.13;0.52;;;;;;;;;;5048048;28;20415;-72
2022/10/02 01:42:11;;;;;;;2.88;1.00;;;;;;;;;;5047634;28;20112;-72
2022/10/02 01:44:43;;;;;;;2.33;1.00;;;;;;;;;;5048042;28;20045;-72
2022/10/02 01:47:21;;;;;;;1.92;0.52;;;;;;;;;;5045839;28;20392;-72
2022/10/02 01:50:03;;;;;;;1.42;0.65;;;;;;;;;;5045277;28;20044;-73
2022/10/02 01:52:52;;;;;;;7.43;0.90;;;;;;;;;;5047975;28;20372;-73
2022/10/02 01:55:28;;;;;;;1.00;0.57;;;;;;;;;;5046458;28;20052;-73
2022/10/02 01:58:15;;;;;;;3.70;0.63;;;;;;;;;;5045964;28;20053;-73
2022/10/02 02:00:51;;;;;;;2.45;0.65;;;;;;;;;;5046755;28;20051;-72
2022/10/02 02:03:33;;;;;;;2.42;0.60;;;;;;;;;;5047470;28;20060;-72
2022/10/02 02:06:22;;;;;;;2.45;0.85;;;;;;;;;;5045314;28;20036;-73
2022/10/02 02:09:17;;;;;;;1.60;0.60;;;;;;;;;;5046436;28;20041;-72
2022/10/02 02:11:55;;;;;;;0.70;0.52;;;;;;;;;;5046341;28;20104;-72
2022/10/02 02:14:30;;;;;;;2.63;0.70;;;;;;;;;;5045034;28;20048;-73
2022/10/02 02:17:32;;;;;;;1.25;0.50;;;;;;;;;;5044706;28;20048;-72
2022/10/02 02:20:12;;;;;;;1.40;0.50;;;;;;;;;;5045195;28;20049;-74
2022/10/02 02:22:46;;;;;;;3.00;0.57;;;;;;;;;;5045923;28;20037;-72
2022/10/02 02:25:24;;;;;;;0.93;0.47;;;;;;;;;;5044486;28;20045;-72
2022/10/02 02:28:02;;;;;;;2.92;0.68;;;;;;;;;;5046008;28;20049;-72
2022/10/02 02:30:36;;;;;;;1.15;0.52;;;;;;;;;;5047611;28;20059;-72
2022/10/02 02:33:19;;;;;;;2.65;0.43;;;;;;;;;;5044818;28;20060;-72
2022/10/02 02:35:54;;;;;;;1.80;0.77;;;;;;;;;;5045159;28;20503;-72
2022/10/02 02:38:35;;;;;;;3.25;0.45;;;;;;;;;;5044003;28;20131;-72
2022/10/02 02:41:12;;;;;;;0.60;0.50;;;;;;;;;;5043959;28;20049;-72
2022/10/02 02:44:01;;;;;;;1.90;0.50;;;;;;;;;;5047061;28;20049;-72
2022/10/02 02:47:02;;;;;;;6.95;0.80;;;;;;;;;;5044937;28;20055;-72
2022/10/02 02:49:50;;;;;;;2.00;0.70;;;;;;;;;;5044188;28;20045;-72
2022/10/02 02:52:49;;;;;;;2.42;0.63;;;;;;;;;;5045428;28;20041;-72
2022/10/02 02:55:24;;;;;;;0.45;0.40;;;;;;;;;;5046383;28;20409;-75
2022/10/02 02:58:03;;;;;;;0.93;0.63;;;;;;;;;;5046397;28;20049;-72
2022/10/02 03:00:33;;;;;;;1.25;0.70;;;;;;;;;;5044293;28;20049;-72
2022/10/02 03:03:03;;;;;;;4.38;0.60;;;;;;;;;;5046620;28;21230;-72
2022/10/02 03:05:38;;;;;;;1.50;0.50;;;;;;;;;;5044168;28;20052;-72
2022/10/02 03:08:22;;;;;;;0.60;0.47;;;;;;;;;;5046033;28;20412;-72
2022/10/02 03:11:18;;;;;;;3.05;0.63;;;;;;;;;;5043829;28;20045;-72
2022/10/02 03:14:25;;;;;;;2.65;0.57;;;;;;;;;;5046216;28;20037;-72
2022/10/02 03:17:09;;;;;;;4.30;1.10;;;;;;;;;;5042928;28;20048;-72
2022/10/02 03:19:54;;;;;;;2.92;1.13;;;;;;;;;;5045120;28;20041;-72
2022/10/02 03:22:35;;;;;;;2.00;0.65;;;;;;;;;;5047146;28;20711;-72
2022/10/02 03:25:30;;;;;;;5.07;0.50;;;;;;;;;;5046700;28;20049;-72
2022/10/02 03:28:06;;;;;;;1.95;0.77;;;;;;;;;;5046507;28;20048;-73
2022/10/02 03:30:39;;;;;;;2.75;0.63;;;;;;;;;;5046149;28;20053;-72
2022/10/02 03:33:12;;;;;;;4.88;1.92;;;;;;;;;;5046291;28;20060;-72
2022/10/02 03:35:43;;;;;;;4.35;1.00;;;;;;;;;;5044497;28;20068;-71
2022/10/02 03:38:15;;;;;;;6.32;0.90;;;;;;;;;;5043369;28;20052;-72
2022/10/02 03:40:45;;;;;;;1.67;0.80;;;;;;;;;;5043112;28;20041;-72
2022/10/02 03:43:21;;;;;;;;;;;;;;;;;;5043233;28;20045;-73
2022/10/02 03:45:51;;;;;;;3.63;0.93;;;;;;;;;;5041880;28;20343;-72
2022/10/02 03:48:21;;;;;;;;;;;;;;;;;;5044368;28;20075;-73
2022/10/02 03:50:51;;;;;;;5.07;1.55;;;;;;;;;;5043769;28;19924;-73
2022/10/02 03:53:28;;;;;;;2.20;1.02;;;;;;;;;;5045341;28;20057;-73
2022/10/02 03:56:27;;;;;;;3.17;0.63;;;;;;;;;;5046133;28;20060;-72
2022/10/02 03:59:02;;;;;;;2.70;0.70;;;;;;;;;;5045979;28;20051;-75
2022/10/02 04:01:47;;;;;;;1.30;0.65;;;;;;;;;;5046607;28;20045;-72
2022/10/02 04:04:30;;;;;;;4.70;0.93;;;;;;;;;;5046198;28;20749;-72
2022/10/02 04:07:04;;;;;;;2.30;0.90;;;;;;;;;;5045961;28;20052;-73
2022/10/02 04:09:47;;;;;;;1.45;0.90;;;;;;;;;;5045639;28;20399;-72
2022/10/02 04:12:30;;;;;;;3.42;1.00;;;;;;;;;;5045684;28;20041;-72
2022/10/02 04:15:09;;;;;;;3.50;0.98;;;;;;;;;;5046616;28;20341;-72
2022/10/02 04:18:15;;;;;;;2.33;1.08;;;;;;;;;;5045685;28;20041;-72
2022/10/02 04:20:58;;;;;;;2.25;0.80;;;;;;;;;;5040706;28;20064;-72
2022/10/02 04:23:34;;;;;;;1.27;0.80;;;;;;;;;;5046368;28;20055;-73
2022/10/02 04:26:11;;;;;;;1.70;0.90;;;;;;;;;;5045690;28;20056;-72
2022/10/02 04:28:48;;;;;;;2.05;0.70;;;;;;;;;;5046291;28;20052;-72
2022/10/02 04:31:18;;;;;;;1.27;0.93;;;;;;;;;;5046014;28;20056;-72
2022/10/02 04:33:49;;;;;;;1.38;0.70;;;;;;;;;;5044647;28;20528;-72
2022/10/02 04:36:39;;;;;;;2.30;0.50;;;;;;;;;;5045700;28;20041;-73
2022/10/02 04:39:42;;;;;;;2.22;0.85;;;;;;;;;;5046108;28;20045;-71
2022/10/02 04:42:33;;;;;;;1.23;0.80;;;;;;;;;;5045663;28;20048;-72
2022/10/02 04:45:17;;;;;;;1.42;0.82;;;;;;;;;;5046076;28;20088;-72
2022/10/02 04:48:07;;;;;;;5.80;1.30;;;;;;;;;;5046218;28;20063;-72
2022/10/02 04:51:08;;;;;;;3.28;1.00;;;;;;;;;;5046126;28;20056;-71
2022/10/02 04:54:09;;;;;;;2.33;0.88;;;;;;;;;;5049155;28;20047;-72
2022/10/02 04:56:49;;;;;;;;;;;;;;;;;;5050177;28;20045;-72
2022/10/02 04:59:43;;;;;;;2.22;0.65;;;;;;;;;;5049097;28;19938;-72
2022/10/02 05:02:13;;;;;;;;;;;;;;;;;;5049942;28;20052;-72
2022/10/02 05:04:53;;;;;;;1.38;0.52;;;;;;;;;;5049136;28;19924;-72
2022/10/02 05:07:32;;;;;;;2.83;0.60;;;;;;;;;;5048373;28;20053;-72
2022/10/02 05:10:28;;;;;;;1.17;0.60;;;;;;;;;;5049292;28;20049;-73
2022/10/02 05:12:58;;;;;;;2.25;0.68;;;;;;;;;;5048622;28;20048;-71
2022/10/02 05:15:33;;;;;;;;;;;;;;;;;;5049713;28;20049;-72
2022/10/02 05:18:11;;;;;;;0.98;0.63;;;;;;;;;;5048609;28;19924;-73
2022/10/02 05:21:16;;;;;;;2.00;0.73;;;;;;;;;;5049023;28;20531;-72
2022/10/02 05:24:02;;;;;;;2.08;0.40;;;;;;;;;;5047933;28;20049;-72
2022/10/02 05:26:47;;;;;;;1.92;0.70;;;;;;;;;;5048665;28;20037;-72
2022/10/02 05:29:32;;;;;;;0.30;0.30;;;;;;;;;;5047644;28;20041;-72
2022/10/02 05:32:14;;;;;;;1.80;0.60;;;;;;;;;;5049216;28;20056;-72
2022/10/02 05:35:05;;;;;;;1.52;0.35;;;;;;;;;;5048735;28;20071;-72
2022/10/02 05:38:02;;;;;;;3.58;0.50;;;;;;;;;;5048052;28;20757;-72
2022/10/02 05:40:56;;;;;;;1.02;0.57;;;;;;;;;;5048718;28;20036;-72
2022/10/02 05:43:44;;;;;;;2.03;0.73;;;;;;;;;;5048181;28;20059;-72
2022/10/02 05:46:16;;;;;;;;;;;;;;;;;;5048998;28;20061;-72
2022/10/02 05:48:54;;;;;;;2.35;0.47;;;;;;;;;;5048815;28;19920;-74
2022/10/02 05:51:50;;;;;;;6.65;0.70;;;;;;;;;;5048135;28;20053;-73
2022/10/02 05:54:35;;;;;;;2.38;0.40;;;;;;;;;;5047843;28;20040;-72
2022/10/02 05:57:33;;;;;;;4.00;0.63;;;;;;;;;;5047876;28;20058;-72
2022/10/02 06:00:08;;;;;;;0.90;0.40;;;;;;;;;;5047799;28;20052;-72
2022/10/02 06:03:32;;;;;;;1.25;0.45;;;;;;;;;;5048140;28;20087;-72
2022/10/02 06:06:50;;;;;;;1.50;0.52;;;;;;;;;;5025527;28;20434;-72
2022/10/02 06:09:30;;;;;;;0.60;0.40;;;;;;;;;;5026154;28;20044;-71
2022/10/02 06:12:11;;;;;;;1.88;0.30;;;;;;;;;;5048104;28;20045;-72
2022/10/02 06:14:49;;;;;;;2.45;1.10;;;;;;;;;;5047794;28;20049;-72
2022/10/02 06:17:29;;;;;;;2.30;0.47;;;;;;;;;;5048218;28;20040;-73
2022/10/02 06:20:02;;;;;;;1.80;0.52;;;;;;;;;;5047896;28;20523;-72
2022/10/02 06:22:56;;;;;;;2.53;0.35;;;;;;;;;;5047387;28;20531;-72
2022/10/02 06:25:28;;;;;;;;;;;;;;;;;;5048911;28;20044;-72
2022/10/02 06:28:15;;;;;;;1.60;0.40;;;;;;;;;;5048044;28;19925;-72
2022/10/02 06:30:56;;;;;;;0.85;0.43;;;;;;;;;;5048310;28;20049;-72
2022/10/02 06:33:29;;;;;;;1.95;0.90;;;;;;;;;;5047491;28;20041;-72
2022/10/02 06:36:20;;;;;;;0.47;0.45;;;;;;;;;;5047683;28;20052;-72
2022/10/02 06:39:27;;;;;;;1.13;0.50;;;;;;;;;;5047897;28;20068;-72
2022/10/02 06:42:31;;;;;;;1.75;0.50;;;;;;;;;;5047264;28;20507;-72
2022/10/02 06:45:59;;;;;;;0.50;0.40;;;;;;;;;;5047229;28;20511;-72
2022/10/02 06:48:42;;;;;;;0.85;0.50;;;;;;;;;;4998510;28;20053;-72
2022/10/02 06:51:15;;;;;;;1.92;0.60;;;;;;;;;;5047238;28;20045;-72
2022/10/02 06:54:00;;;;;;;2.25;0.40;;;;;;;;;;5047102;28;20676;-72
2022/10/02 06:56:49;;;;;;;1.00;0.32;;;;;;;;;;5047051;28;20152;-72
2022/10/02 06:59:37;;;;;;;2.50;0.68;;;;;;;;;;5046811;28;20037;-72
2022/10/02 07:02:21;;;;;;;;;;;;;;;;;;5047410;28;20534;-72
2022/10/02 07:05:04;;;;;;;0.40;0.30;;;;;;;;;;5045912;28;19925;-72
2022/10/02 07:07:39;;;;;;;;;;;;;;;;;;5047248;28;20059;-72
2022/10/02 07:11:02;;;;;;;3.08;1.25;;;;;;;;;;5045487;28;19925;-72
2022/10/02 07:13:38;;;;;;;5.57;1.30;;;;;;;;;;5030249;28;20520;-72
2022/10/02 07:16:28;;;;;;;5.45;0.80;;;;;;;;;;5046940;28;20052;-72
2022/10/02 07:19:25;;;;;;;1.25;0.50;;;;;;;;;;5046498;28;20044;-72
2022/10/02 07:22:13;;;;;;;2.40;0.85;;;;;;;;;;5047303;28;20390;-72
2022/10/02 07:25:21;;;;;;;6.60;0.98;;;;;;;;;;5046681;28;20041;-72
2022/10/02 07:28:23;;;;;;;4.35;0.73;;;;;;;;;;5047003;28;20051;-72
2022/10/02 07:31:06;;;;;;;2.28;0.77;;;;;;;;;;5046837;28;20052;-72
2022/10/02 07:34:13;;;;;;;5.82;0.70;;;;;;;;;;5046012;28;20439;-72
2022/10/02 07:36:56;;;;;;;3.65;0.57;;;;;;;;;;5046519;28;20045;-72
2022/10/02 07:39:47;;;;;;;2.88;0.40;;;;;;;;;;5046614;28;20048;-72
2022/10/02 07:42:47;;;;;;;3.00;0.40;;;;;;;;;;5045442;28;20049;-72
2022/10/02 07:45:23;;;;;;;;;;;;;;;;;;5045206;28;20060;-72
2022/10/02 07:48:19;;;;;;;2.05;0.55;;;;;;;;;;5046096;28;20414;-72
2022/10/02 07:54:29;;;;;;;1.40;0.50;;;;;;;;;;5045886;28;20048;-72
2022/10/02 07:57:26;;;;;;;1.95;0.70;;;;;;;;;;5046171;28;20055;-72
2022/10/02 08:00:18;;;;;;;1.58;0.50;;;;;;;;;;5046689;28;20053;-72
2022/10/02 08:02:57;;;;;;;1.27;0.43;;;;;;;;;;5046291;28;20060;-72
2022/10/02 08:05:52;;;;;;;1.17;0.50;;;;;;;;;;5046277;28;20041;-76
2022/10/02 08:08:39;;;;;;;1.10;0.38;;;;;;;;;;5045904;28;20049;-72
2022/10/02 08:11:31;;;;;;;2.67;0.77;;;;;;;;;;5045673;28;20040;-72
2022/10/02 08:14:38;;;;;;;1.60;0.43;;;;;;;;;;5045990;28;20385;-73
2022/10/02 08:17:31;;;;;;;3.63;0.68;;;;;;;;;;5037861;28;20480;-72
2022/10/02 08:20:27;;;;;;;1.83;0.40;;;;;;;;;;5046310;28;20053;-72
2022/10/02 08:23:20;;;;;;;0.52;0.50;;;;;;;;;;5046773;28;20049;-71
2022/10/02 08:26:15;;;;;;;1.75;0.40;;;;;;;;;;5047289;28;20528;-72
2022/10/02 08:29:23;;;;;;;1.48;0.55;;;;;;;;;;5049071;28;20049;-72
2022/10/02 08:31:55;;;;;;;0.88;0.40;;;;;;;;;;5040989;28;20057;-72
2022/10/02 08:34:27;;;;;;;0.90;0.60;;;;;;;;;;5049716;28;20044;-72
2022/10/02 08:37:30;;;;;;;1.35;0.47;;;;;;;;;;5049629;28;20049;-72
2022/10/02 08:40:03;;;;;;;2.00;0.40;;;;;;;;;;5049612;28;20041;-71
2022/10/02 08:42:54;;;;;;;3.50;0.50;;;;;;;;;;5049481;28;20049;-72
2022/10/02 08:45:33;;;;;;;1.63;0.40;;;;;;;;;;5050572;28;20045;-72
2022/10/02 08:48:57;;;;;;;1.85;0.50;;;;;;;;;;5049624;28;20554;-72
2022/10/02 08:51:43;;;;;;;2.15;0.70;;;;;;;;;;5049642;28;20052;-76
2022/10/02 08:54:22;;;;;;;2.90;0.95;;;;;;;;;;5049418;28;20044;-72
2022/10/02 08:57:01;;;;;;;3.22;0.52;;;;;;;;;;5049168;28;20044;-73
2022/10/02 09:00:05;;;;;;;0.50;0.40;;;;;;;;;;5049445;28;20053;-72
2022/10/02 09:03:12;;;;;;;3.35;0.85;;;;;;;;;;5049182;28;20053;-72
2022/10/02 09:05:58;;;;;;;;;;;;;;;;;;5048903;28;20441;-71
2022/10/02 09:08:59;;;;;;;2.38;0.60;;;;;;;;;;5049727;28;19924;-72
2022/10/02 09:11:53;;;;;;;3.72;0.65;;;;;;;;;;5048374;28;20049;-72
2022/10/02 09:14:42;;;;;;;0.57;0.40;;;;;;;;;;5028268;28;20068;-72
2022/10/02 09:17:47;;;;;;;1.55;0.40;;;;;;;;;;5047543;28;20049;-72
2022/10/02 09:20:36;;;;;;;1.35;0.43;;;;;;;;;;5006706;28;20429;-71
2022/10/02 09:23:42;;;;;;;0.82;0.32;;;;;;;;;;5047383;28;20069;-72
2022/10/02 09:26:36;;;;;;;1.83;0.40;;;;;;;;;;5048888;28;20049;-72
2022/10/02 09:29:09;;;;;;;5.05;0.60;;;;;;;;;;5049018;28;20060;-76
2022/10/02 09:32:10;;;;;;;2.90;0.52;;;;;;;;;;5049192;28;20148;-72
2022/10/02 09:35:16;;;;;;;5.22;0.73;;;;;;;;;;5048637;28;20045;-72
2022/10/02 09:37:58;;;;;;;0.70;0.50;;;;;;;;;;5047255;28;20052;-72
2022/10/02 09:40:39;;;;;;;4.20;0.40;;;;;;;;;;5048413;28;20053;-72
2022/10/02 09:43:20;;;;;;;1.40;0.50;;;;;;;;;;5047784;28;20049;-73
2022/10/02 09:46:30;;;;;;;1.58;0.52;;;;;;;;;;5048805;28;20092;-72
2022/10/02 09:49:23;;;;;;;2.38;0.63;;;;;;;;;;5048172;28;20052;-72
2022/10/02 09:51:58;;;;;;;2.17;0.70;;;;;;;;;;5042438;28;20053;-72
2022/10/02 09:54:49;;;;;;;2.03;0.45;;;;;;;;;;5048410;28;20067;-72
2022/10/02 09:57:41;;;;;;;3.47;0.50;;;;;;;;;;5048503;28;20053;-75
2022/10/02 10:00:29;;;;;;;4.35;0.52;;;;;;;;;;5048268;28;20049;-72
2022/10/02 10:03:22;;;;;;;1.15;0.50;;;;;;;;;;5048212;28;20052;-72
2022/10/02 10:06:18;;;;;;;3.63;0.65;;;;;;;;;;5048368;28;20625;-72
2022/10/02 10:09:09;;;;;;;2.25;0.50;;;;;;;;;;5046609;28;20053;-73
2022/10/02 10:12:09;;;;;;;2.42;0.63;;;;;;;;;;5048769;28;20534;-72
2022/10/02 10:15:28;;;;;;;3.10;0.80;;;;;;;;;;5048230;28;20044;-72
2022/10/02 10:18:19;;;;;;;1.02;0.70;;;;;;;;;;5048163;28;20044;-72
2022/10/02 10:21:25;;;;;;;6.07;0.70;;;;;;;;;;5048515;28;20057;-72
2022/10/02 10:24:45;;;;;;;1.20;0.50;;;;;;;;;;5047696;28;20044;-72
2022/10/02 10:27:38;;;;;;;3.33;0.60;;;;;;;;;;5040109;28;20061;-72
2022/10/02 10:30:23;;;;;;;1.77;0.47;;;;;;;;;;5042253;28;20071;-72
2022/10/02 10:33:11;;;;;;;1.80;0.63;;;;;;;;;;5048249;28;20037;-72
2022/10/02 10:36:03;;;;;;;0.95;0.40;;;;;;;;;;5046119;28;20048;-78
2022/10/02 10:38:51;;;;;;;1.95;0.60;;;;;;;;;;5046439;28;20430;-76
2022/10/02 10:41:34;;;;;;;2.20;0.77;;;;;;;;;;5047493;28;20049;-72
2022/10/02 10:44:23;;;;;;;2.10;0.65;;;;;;;;;;5047568;28;20389;-72
2022/10/02 10:47:18;;;;;;;1.48;0.60;;;;;;;;;;5047184;28;20526;-72
2022/10/02 10:50:01;;;;;;;1.08;0.63;;;;;;;;;;5047605;28;20063;-72
2022/10/02 10:52:55;;;;;;;0.98;0.65;;;;;;;;;;5047198;28;20503;-73
2022/10/02 10:55:53;;;;;;;1.63;0.60;;;;;;;;;;5047857;28;20067;-72
2022/10/02 10:58:51;;;;;;;3.17;0.90;;;;;;;;;;5047190;28;20045;-72
2022/10/02 11:01:56;;;;;;;3.67;0.80;;;;;;;;;;5047361;28;20033;-72
2022/10/02 11:04:52;;;;;;;2.85;0.43;;;;;;;;;;5040230;28;20104;-72
2022/10/02 11:07:52;;;;;;;0.90;0.57;;;;;;;;;;5044411;28;20048;-72
2022/10/02 11:10:22;;;;;;;3.47;1.00;;;;;;;;;;5043521;28;20072;-73
2022/10/02 11:13:07;;;;;;;6.10;0.80;;;;;;;;;;5046938;28;20072;-72
2022/10/02 11:16:06;;;;;;;1.50;0.82;;;;;;;;;;5046876;28;20056;-73
2022/10/02 11:19:13;;;;;;;1.95;0.88;;;;;;;;;;5046784;28;20045;-72
2022/10/02 11:22:11;;;;;;;2.95;0.70;;;;;;;;;;5046761;28;20049;-72
2022/10/02 11:25:11;;;;;;;2.35;0.88;;;;;;;;;;5047231;28;20068;-73
2022/10/02 11:28:02;;;;;;;1.42;0.68;;;;;;;;;;5047506;28;20056;-73
2022/10/02 11:31:08;;;;;;;0.40;0.40;;;;;;;;;;5046636;28;20049;-74
2022/10/02 11:34:06;;;;;;;2.28;0.70;;;;;;;;;;5046865;28;20057;-72
2022/10/02 11:37:13;;;;;;;2.30;0.90;;;;;;;;;;5047332;28;20606;-72
2022/10/02 11:40:29;;;;;;;4.68;1.00;;;;;;;;;;5047256;28;20037;-73
2022/10/02 11:43:03;;;;;;;2.15;0.95;;;;;;;;;;5046386;28;20060;-73
2022/10/02 11:45:54;;;;;;;2.08;1.20;;;;;;;;;;5046327;28;20533;-72
2022/10/02 11:48:55;;;;;;;0.90;0.52;;;;;;;;;;5046113;28;20068;-72
2022/10/02 11:51:45;;;;;;;3.58;0.70;;;;;;;;;;5045688;28;20551;-73
2022/10/02 11:54:47;;;;;;;2.35;0.55;;;;;;;;;;5046814;28;20068;-74
2022/10/02 11:57:28;;;;;;;4.35;1.08;;;;;;;;;;5046096;28;20045;-74
2022/10/02 12:00:12;;;;;;;2.97;0.80;;;;;;;;;;5046321;28;20053;-76
2022/10/02 12:03:08;;;;;;;1.45;0.95;;;;;;;;;;5046110;28;20534;-76
2022/10/02 12:06:03;;;;;;;2.88;1.05;;;;;;;;;;5046485;28;20061;-74
2022/10/02 12:08:48;;;;;;;1.88;1.20;;;;;;;;;;5046096;28;20048;-73
2022/10/02 12:11:39;;;;;;;2.15;1.08;;;;;;;;;;5046190;28;20053;-74
2022/10/02 12:14:27;;;;;;;1.70;1.13;;;;;;;;;;5046387;28;20052;-75
2022/10/02 12:17:04;;;;;;;4.95;1.50;;;;;;;;;;5046021;28;20520;-74
2022/10/02 12:29:09;;;;;;;3.00;1.40;;;;;;;;;;5046407;28;20078;-73
2022/10/02 12:31:52;;;;;;;2.75;1.73;;;;;;;;;;5046086;28;20431;-73
2022/10/02 12:34:50;;;;;;;5.00;1.63;;;;;;;;;;5046148;28;20072;-72
2022/10/02 12:37:55;;;;;;;2.28;1.60;;;;;;;;;;5044815;28;20062;-73
2022/10/02 12:40:48;;;;;;;2.33;1.60;;;;;;;;;;5046537;28;20056;-73
2022/10/02 12:43:25;;;;;;;3.35;1.60;;;;;;;;;;5045812;28;20055;-74
2022/10/02 12:46:06;;;;;;;8.23;2.13;;;;;;;;;;5046043;28;20076;-72
2022/10/02 12:48:49;;;;;;;1.48;0.90;;;;;;;;;;5046123;28;20041;-74
2022/10/02 12:51:33;;;;;;;5.38;1.75;;;;;;;;;;5046127;28;20144;-73
2022/10/02 12:54:15;;;;;;;3.08;1.50;;;;;;;;;;5046362;28;20782;-72
2022/10/02 13:00:24;;;;;;;3.17;1.30;;;;;;;;;;5045162;28;20051;-72
2022/10/02 13:03:07;;;;;;;2.20;1.10;;;;;;;;;;5045470;28;20061;-73
2022/10/02 13:05:52;;;;;;;4.10;1.00;;;;;;;;;;5046654;28;20404;-73
2022/10/02 13:08:40;;;;;;;2.88;1.00;;;;;;;;;;5046159;28;20045;-73
2022/10/02 13:11:39;;;;;;;1.27;0.70;;;;;;;;;;5041735;28;20046;-76
2022/10/02 13:14:28;;;;;;;2.03;0.70;;;;;;;;;;5029611;28;20595;-73
2022/10/02 13:17:23;;;;;;;2.10;0.85;;;;;;;;;;5029193;28;20042;-72
2022/10/02 13:20:12;;;;;;;5.72;1.00;;;;;;;;;;5028352;28;20041;-73
2022/10/02 13:22:58;;;;;;;0.98;0.50;;;;;;;;;;5029194;28;20056;-72
2022/10/02 13:25:56;;;;;;;1.02;0.80;;;;;;;;;;5012100;28;20058;-73
2022/10/02 13:28:32;;;;;;;1.20;0.60;;;;;;;;;;5028506;28;20041;-73
2022/10/02 13:31:17;;;;;;;1.63;0.60;;;;;;;;;;5028796;28;20515;-72
2022/10/02 13:34:05;;;;;;;1.23;0.60;;;;;;;;;;5028577;28;20432;-74
2022/10/02 13:37:06;;;;;;;2.60;0.73;;;;;;;;;;5029103;28;20511;-73
2022/10/02 13:40:14;;;;;;;1.38;0.80;;;;;;;;;;5028494;28;20045;-75
2022/10/02 13:42:53;;;;;;;1.40;0.90;;;;;;;;;;5016965;28;20068;-72
2022/10/02 13:45:23;;;;;;;5.03;0.80;;;;;;;;;;5028888;28;20068;-76
2022/10/02 13:48:17;;;;;;;5.00;2.28;;;;;;;;;;5027883;28;20064;-73
2022/10/02 13:50:53;;;;;;;1.98;1.10;;;;;;;;;;5029096;28;20416;-75
2022/10/02 13:53:36;;;;;;;1.58;1.10;;;;;;;;;;5028727;28;20059;-72
2022/10/02 13:56:06;;;;;;;5.55;1.63;;;;;;;;;;5043398;28;20623;-73
2022/10/02 13:58:48;;;;;;;1.17;0.95;;;;;;;;;;5027947;28;20050;-72
2022/10/02 14:01:43;;;;;;;4.30;1.15;;;;;;;;;;5028422;28;20038;-73
2022/10/02 14:05:10;;;;;;;5.47;1.60;;;;;;;;;;5029172;28;20064;-74
2022/10/02 14:08:13;;;;;;;4.03;1.30;;;;;;;;;;5007575;28;20058;-75
2022/10/02 14:11:10;;;;;;;1.33;1.05;;;;;;;;;;5029604;28;20045;-72
2022/10/02 14:14:21;;;;;;;4.20;1.20;;;;;;;;;;5014337;28;20064;-70
2022/10/02 14:17:23;;;;;;;3.38;1.30;;;;;;;;;;5028361;28;20054;-72
2022/10/02 14:20:21;;;;;;;1.10;0.90;;;;;;;;;;5028887;28;20041;-73
2022/10/02 14:23:12;;;;;;;2.28;1.08;;;;;;;;;;5029355;28;20053;-74
2022/10/02 14:26:13;;;;;;;1.73;1.08;;;;;;;;;;5044572;28;20135;-74
2022/10/02 14:29:04;;;;;;;5.32;1.02;;;;;;;;;;5030130;28;20060;-72
2022/10/02 14:31:45;;;;;;;1.92;1.20;;;;;;;;;;5030435;28;20045;-72
2022/10/02 14:34:34;;;;;;;3.17;1.30;;;;;;;;;;5028920;28;20033;-73
2022/10/02 14:37:37;;;;;;;1.38;1.00;;;;;;;;;;5029382;28;20072;-75
2022/10/02 14:40:16;;;;;;;1.73;1.00;;;;;;;;;;5028487;28;20064;-74
2022/10/02 14:43:17;;;;;;;7.00;1.08;;;;;;;;;;5028956;28;20053;-74
2022/10/02 14:46:08;;;;;;;2.55;1.20;;;;;;;;;;5029015;28;20498;-72
2022/10/02 14:48:55;;;;;;;2.78;1.02;;;;;;;;;;5029838;28;20049;-74
2022/10/02 14:51:35;;;;;;;3.72;2.40;;;;;;;;;;5028049;28;20061;-73
2022/10/02 14:54:22;;;;;;;2.58;0.98;;;;;;;;;;5028204;28;20045;-73
2022/10/02 14:57:23;;;;;;;0.82;0.57;;;;;;;;;;5027386;28;20053;-72
2022/10/02 15:00:21;;;;;;;1.85;1.63;;;;;;;;;;5027317;28;20085;-73
2022/10/02 15:02:51;;;;;;;1.38;0.88;;;;;;;;;;5027467;28;20049;-72
2022/10/02 15:05:39;;;;;;;1.00;0.80;;;;;;;;;;5027519;28;20057;-72
2022/10/02 15:08:39;;;;;;;1.63;1.00;;;;;;;;;;5027208;28;20057;-73
2022/10/02 15:11:25;;;;;;;3.40;0.90;;;;;;;;;;5019305;28;20065;-74
2022/10/02 15:14:07;;;;;;;2.08;1.40;;;;;;;;;;5027141;28;20068;-73
2022/10/02 15:19:44;;;;;;;3.42;1.73;;;;;;;;;;5026814;28;20045;-72
2022/10/02 15:22:50;;;;;;;3.55;1.88;;;;;;;;;;5026776;28;20504;-72
2022/10/02 15:25:51;;;;;;;7.50;2.20;;;;;;;;;;5027035;28;20054;-74
2022/10/02 15:28:39;;;;;;;5.25;1.65;;;;;;;;;;5027491;28;20069;-72
2022/10/02 15:31:38;;;;;;;5.20;1.92;;;;;;;;;;5026671;28;20045;-73
2022/10/02 15:34:26;;;;;;;3.80;1.75;;;;;;;;;;5026405;28;20050;-73
2022/10/02 15:37:34;;;;;;;2.90;1.60;;;;;;;;;;5026493;28;20060;-78
2022/10/02 15:40:26;;;;;;;2.85;1.40;;;;;;;;;;5041973;28;20424;-73
2022/10/02 15:43:17;;;;;;;5.00;2.08;;;;;;;;;;5026858;28;20055;-71
2022/10/02 15:45:56;;;;;;;3.25;1.85;;;;;;;;;;5026503;28;20041;-73
2022/10/02 15:48:44;;;;;;;2.60;1.90;;;;;;;;;;5026513;28;20069;-72
2022/10/02 15:51:25;;;;;;;3.22;2.10;;;;;;;;;;5026466;28;20045;-72
2022/10/02 15:54:16;;;;;;;3.08;1.83;;;;;;;;;;5026660;28;20408;-75
2022/10/02 15:57:23;;;;;;;6.55;2.60;;;;;;;;;;5026597;28;20037;-72
2022/10/02 16:00:13;;;;;;;3.63;2.67;;;;;;;;;;5026587;28;20412;-73
2022/10/02 16:03:05;;;;;;;3.28;1.60;;;;;;;;;;5026747;28;20524;-74
2022/10/02 16:05:59;;;;;;;7.05;2.80;;;;;;;;;;5026174;28;20050;-73
2022/10/02 16:08:53;;;;;;;3.85;2.20;;;;;;;;;;5026244;28;20068;-73
2022/10/02 16:11:58;;;;;;;4.72;2.17;;;;;;;;;;5026277;28;20394;-73
2022/10/02 16:14:59;;;;;;;5.68;2.70;;;;;;;;;;5029835;28;20523;-72
2022/10/02 16:17:35;;;;;;;3.15;2.00;;;;;;;;;;5024859;28;20124;-72
2022/10/02 16:20:14;;;;;;;2.40;1.23;;;;;;;;;;5026482;28;20049;-70
2022/10/02 16:22:48;;;;;;;1.88;1.42;;;;;;;;;;5026064;28;20045;-73
2022/10/02 16:25:39;;;;;;;3.22;1.85;;;;;;;;;;5025983;28;20424;-70
2022/10/02 16:28:30;;;;;;;2.28;1.60;;;;;;;;;;5025996;28;20385;-72
2022/10/02 16:31:39;;;;;;;4.18;1.88;;;;;;;;;;5025687;28;20052;-71
2022/10/02 16:34:13;;;;;;;2.30;1.63;;;;;;;;;;5026460;28;20058;-71
2022/10/02 16:37:08;;;;;;;2.42;1.35;;;;;;;;;;5026095;28;20428;-73
2022/10/02 16:40:04;;;;;;;2.38;1.30;;;;;;;;;;5025424;28;20468;-72
2022/10/02 16:42:46;;;;;;;1.80;1.38;;;;;;;;;;5021572;28;20423;-72
2022/10/02 16:45:22;;;;;;;0.90;0.90;;;;;;;;;;5025788;28;20389;-72
2022/10/02 16:48:06;;;;;;;1.70;1.13;;;;;;;;;;5028302;28;20534;-73
2022/10/02 16:50:54;;;;;;;2.33;1.15;;;;;;;;;;5029958;28;20381;-73
2022/10/02 16:53:44;;;;;;;;;;;;;;;;;;5030339;28;20049;-72
2022/10/02 16:56:26;;;;;;;2.08;1.40;;;;;;;;;;5028827;28;19931;-73
2022/10/02 16:59:38;;;;;;;2.65;1.77;;;;;;;;;;5029320;28;20049;-73
2022/10/02 17:02:16;;;;;;;4.88;1.70;;;;;;;;;;5007552;28;20555;-73
2022/10/02 17:04:59;;;;;;;2.42;1.35;;;;;;;;;;5024569;28;20052;-73
2022/10/02 17:08:07;;;;;;;2.30;1.50;;;;;;;;;;5029640;28;20049;-73
2022/10/02 17:11:12;;;;;;;4.30;1.52;;;;;;;;;;5028410;28;20044;-73